createdAt,value
2019-05-11T00:01:49.711Z,73.40
2019-05-11T00:04:18.757Z,73.30
2019-05-11T00:06:47.187Z,73.20
2019-05-11T00:09:15.563Z,73.30
2019-05-11T00:11:43.938Z,73.30
2019-05-11T00:14:12.397Z,73.20
2019-05-11T00:16:40.792Z,73.20
2019-05-11T00:19:09.175Z,73.40
2019-05-11T00:21:37.616Z,74.10
2019-05-11T00:24:05.999Z,74.10
2019-05-11T00:26:34.394Z,74.60
2019-05-11T00:29:02.823Z,74.60
2019-05-11T00:31:31.225Z,74.50
2019-05-11T00:33:59.609Z,74.60
2019-05-11T00:36:28.029Z,75.10
2019-05-11T00:38:56.414Z,74.30
2019-05-11T00:41:24.781Z,74.40
2019-05-11T00:43:53.190Z,74.20
2019-05-11T00:46:21.607Z,74.20
2019-05-11T00:48:49.984Z,74.50
2019-05-11T00:51:18.382Z,74.30
2019-05-11T00:53:46.846Z,74.20
2019-05-11T00:56:15.206Z,74.00
2019-05-11T00:58:43.607Z,73.90
2019-05-11T01:01:12.059Z,73.90
2019-05-11T01:03:40.450Z,73.60
2019-05-11T01:06:08.868Z,73.50
2019-05-11T01:08:37.233Z,73.20
2019-05-11T01:11:05.643Z,73.30
2019-05-11T01:13:34.106Z,73.50
2019-05-11T01:16:02.451Z,73.10
2019-05-11T01:18:30.847Z,73.20
2019-05-11T01:20:59.299Z,73.20
2019-05-11T01:23:27.658Z,73.00
2019-05-11T01:25:56.043Z,73.10
2019-05-11T01:28:24.450Z,73.20
2019-05-11T01:30:52.843Z,73.60
2019-05-11T01:33:21.241Z,73.60
2019-05-11T01:35:51.187Z,73.80
2019-05-11T01:38:19.737Z,73.70
2019-05-11T01:40:58.150Z,73.30
2019-05-11T01:43:18.207Z,73.10
2019-05-11T01:45:46.591Z,72.80
2019-05-11T01:48:15.034Z,72.50
2019-05-11T01:50:43.441Z,72.60
2019-05-11T01:53:11.849Z,73.00
2019-05-11T01:55:40.233Z,72.90
2019-05-11T01:58:08.689Z,72.80
2019-05-11T02:00:37.067Z,72.60
2019-05-11T02:03:05.448Z,72.60
2019-05-11T02:05:33.894Z,72.40
2019-05-11T02:08:02.303Z,72.40
2019-05-11T02:10:30.753Z,72.10
2019-05-11T02:12:59.172Z,72.40
2019-05-11T02:15:27.578Z,72.10
2019-05-11T02:17:55.965Z,72.20
2019-05-11T02:20:24.363Z,72.10
2019-05-11T02:22:52.802Z,72.10
2019-05-11T02:25:21.193Z,71.80
2019-05-11T02:27:49.617Z,71.80
2019-05-11T02:30:19.205Z,72.00
2019-05-11T02:32:47.610Z,72.00
2019-05-11T02:35:16.005Z,72.20
2019-05-11T02:37:44.428Z,72.00
2019-05-11T02:40:12.826Z,72.20
2019-05-11T02:42:41.227Z,72.80
2019-05-11T02:45:09.633Z,72.60
2019-05-11T02:47:38.016Z,72.70
2019-05-11T02:50:06.464Z,72.60
2019-05-11T02:52:34.839Z,72.20
2019-05-11T02:55:03.580Z,73.20
2019-05-11T02:57:32.029Z,73.10
2019-05-11T03:00:00.393Z,73.00
2019-05-11T03:02:28.776Z,73.00
2019-05-11T03:04:57.224Z,73.10
2019-05-11T03:07:25.635Z,73.10
2019-05-11T03:09:54.004Z,73.00
2019-05-11T03:12:22.443Z,72.80
2019-05-11T03:14:50.839Z,72.90
2019-05-11T03:17:20.863Z,73.00
2019-05-11T03:19:49.271Z,73.30
2019-05-11T03:22:17.655Z,74.50
2019-05-11T03:24:46.100Z,74.30
2019-05-11T03:27:14.495Z,74.80
2019-05-11T03:29:42.875Z,74.70
2019-05-11T03:32:11.343Z,74.70
2019-05-11T03:34:39.752Z,74.40
2019-05-11T03:37:08.124Z,74.40
2019-05-11T03:39:36.556Z,74.20
2019-05-11T03:42:14.595Z,74.00
2019-05-11T03:44:34.989Z,74.00
2019-05-11T03:47:03.407Z,74.20
2019-05-11T03:49:31.818Z,75.10
2019-05-11T03:52:00.191Z,75.50
2019-05-11T03:54:28.622Z,75.10
2019-05-11T03:56:57.000Z,74.80
2019-05-11T03:59:25.405Z,75.00
2019-05-11T04:01:53.890Z,74.70
2019-05-11T04:04:22.328Z,74.40
2019-05-11T04:06:50.712Z,74.70
2019-05-11T04:09:19.176Z,75.10
2019-05-11T04:11:47.567Z,74.80
2019-05-11T04:14:15.951Z,74.60
2019-05-11T04:16:44.370Z,74.50
2019-05-11T04:19:12.755Z,73.90
2019-05-11T04:21:41.133Z,74.20
2019-05-11T04:24:09.572Z,74.10
2019-05-11T04:26:38.045Z,74.60
2019-05-11T04:29:06.365Z,74.50
2019-05-11T04:31:35.394Z,74.70
2019-05-11T04:34:03.748Z,74.80
2019-05-11T04:36:32.137Z,74.60
2019-05-11T04:39:00.531Z,74.60
2019-05-11T04:41:28.943Z,74.60
2019-05-11T04:43:57.344Z,74.40
2019-05-11T04:46:25.736Z,75.40
2019-05-11T04:48:54.163Z,75.30
2019-05-11T04:51:22.528Z,75.30
2019-05-11T04:53:50.964Z,75.50
2019-05-11T04:56:19.375Z,75.60
2019-05-11T04:58:47.769Z,75.50
2019-05-11T05:01:16.197Z,75.60
2019-05-11T05:03:47.429Z,75.80
2019-05-11T05:06:24.312Z,76.70
2019-05-11T05:08:44.913Z,76.30
2019-05-11T05:11:13.322Z,76.30
2019-05-11T05:13:41.707Z,76.60
2019-05-11T05:16:10.118Z,75.90
2019-05-11T05:18:38.495Z,75.70
2019-05-11T05:21:06.910Z,75.90
2019-05-11T05:23:35.375Z,76.20
2019-05-11T05:26:03.779Z,76.40
2019-05-11T05:28:32.187Z,76.30
2019-05-11T05:31:00.575Z,76.10
2019-05-11T05:33:28.977Z,76.20
2019-05-11T05:35:57.379Z,76.20
2019-05-11T05:38:25.799Z,76.40
2019-05-11T05:40:54.194Z,76.60
2019-05-11T05:43:28.147Z,76.50
2019-05-11T05:45:52.695Z,76.20
2019-05-11T05:48:21.153Z,76.30
2019-05-11T05:50:49.504Z,76.70
2019-05-11T05:53:17.935Z,76.30
2019-05-11T05:55:46.325Z,75.90
2019-05-11T05:58:14.725Z,76.00
2019-05-11T06:00:43.251Z,76.60
2019-05-11T06:03:13.437Z,76.60
2019-05-11T06:05:41.780Z,76.30
2019-05-11T06:08:12.820Z,76.80
2019-05-11T06:10:41.197Z,77.80
2019-05-11T06:13:09.591Z,77.50
2019-05-11T06:15:38.030Z,77.90
2019-05-11T06:18:06.413Z,77.80
2019-05-11T06:20:34.797Z,77.30
2019-05-11T06:23:03.206Z,77.50
2019-05-11T06:25:31.603Z,77.50
2019-05-11T06:28:01.698Z,77.40
2019-05-11T06:30:30.111Z,77.10
2019-05-11T06:32:58.541Z,77.10
2019-05-11T06:35:26.949Z,77.70
2019-05-11T06:37:55.360Z,77.20
2019-05-11T06:40:23.779Z,76.90
2019-05-11T06:42:52.209Z,76.10
2019-05-11T06:45:20.599Z,76.30
2019-05-11T06:47:49.111Z,75.80
2019-05-11T06:50:17.449Z,75.70
2019-05-11T06:52:45.849Z,75.80
2019-05-11T06:55:14.281Z,75.80
2019-05-11T06:57:42.671Z,76.10
2019-05-11T07:00:12.026Z,76.00
2019-05-11T07:02:40.439Z,75.40
2019-05-11T07:05:08.826Z,75.20
2019-05-11T07:07:46.983Z,75.10
2019-05-11T07:10:07.569Z,75.10
2019-05-11T07:12:36.114Z,74.40
2019-05-11T07:15:05.969Z,74.70
2019-05-11T07:17:37.839Z,74.00
2019-05-11T07:20:10.011Z,73.80
2019-05-11T07:22:46.871Z,74.10
2019-05-11T07:25:15.341Z,73.10
2019-05-11T07:27:43.733Z,72.90
2019-05-11T07:30:12.379Z,73.30
2019-05-11T07:32:40.771Z,73.30
2019-05-11T07:35:09.589Z,72.40
2019-05-11T07:37:38.729Z,72.00
2019-05-11T07:40:08.209Z,71.30
2019-05-11T07:42:37.940Z,71.20
2019-05-11T07:45:11.547Z,70.80
2019-05-11T07:47:40.040Z,71.00
2019-05-11T07:50:08.513Z,70.40
2019-05-11T07:52:39.913Z,70.00
2019-05-11T07:55:08.770Z,69.80
2019-05-11T07:57:39.015Z,69.40
2019-05-11T08:00:10.116Z,69.00
2019-05-11T08:02:38.985Z,68.80
2019-05-11T08:05:08.676Z,68.50
2019-05-11T08:07:48.128Z,68.50
2019-05-11T08:10:20.850Z,68.20
2019-05-11T08:12:52.009Z,67.20
2019-05-11T08:15:22.147Z,66.90
2019-05-11T08:17:52.205Z,66.10
2019-05-11T08:20:25.129Z,65.40
2019-05-11T08:22:58.654Z,65.00
2019-05-11T08:25:30.357Z,64.30
2019-05-11T08:28:03.949Z,64.60
2019-05-11T08:30:33.995Z,64.80
2019-05-11T08:33:08.521Z,65.30
2019-05-11T08:35:39.040Z,63.70
2019-05-11T08:38:09.421Z,63.40
2019-05-11T08:40:38.048Z,63.30
2019-05-11T08:43:08.636Z,63.50
2019-05-11T08:45:39.253Z,64.20
2019-05-11T08:48:12.055Z,64.30
2019-05-11T08:50:42.091Z,63.00
2019-05-11T08:53:12.202Z,63.10
2019-05-11T08:55:42.388Z,62.80
2019-05-11T08:58:10.845Z,62.90
2019-05-11T09:00:47.902Z,63.00
2019-05-11T09:03:21.515Z,62.80
2019-05-11T09:05:51.573Z,61.90
2019-05-11T09:08:24.898Z,61.20
2019-05-11T09:10:53.397Z,61.10
2019-05-11T09:13:21.784Z,61.40
2019-05-11T09:15:51.799Z,61.20
2019-05-11T09:18:21.861Z,61.70
2019-05-11T09:20:52.991Z,61.20
2019-05-11T09:23:33.593Z,59.50
2019-05-11T09:25:51.509Z,59.50
2019-05-11T09:28:19.923Z,59.50
2019-05-11T09:30:48.447Z,59.20
2019-05-11T09:33:20.457Z,59.00
2019-05-11T09:35:52.549Z,59.10
2019-05-11T09:38:18.548Z,59.50
2019-05-11T09:40:47.992Z,58.60
2019-05-11T09:43:17.835Z,58.70
2019-05-11T09:45:49.236Z,58.00
2019-05-11T09:48:17.990Z,57.80
2019-05-11T09:50:48.072Z,58.20
2019-05-11T09:53:17.684Z,58.30
2019-05-11T09:55:48.156Z,58.40
2019-05-11T09:58:19.507Z,58.90
2019-05-11T10:00:47.885Z,59.10
2019-05-11T10:03:18.245Z,59.30
2019-05-11T10:05:48.704Z,59.50
2019-05-11T10:08:18.299Z,58.50
2019-05-11T10:10:48.831Z,57.90
2019-05-11T10:13:18.547Z,58.20
2019-05-11T10:16:01.902Z,58.10
2019-05-11T10:18:18.627Z,56.00
2019-05-11T10:20:48.140Z,55.50
2019-05-11T10:23:18.547Z,55.00
2019-05-11T10:25:48.038Z,55.10
2019-05-11T10:28:17.849Z,55.80
2019-05-11T10:30:48.542Z,56.20
2019-05-11T10:33:18.675Z,55.90
2019-05-11T10:35:48.305Z,56.20
2019-05-11T10:38:18.012Z,56.90
2019-05-11T10:40:48.063Z,57.50
2019-05-11T10:43:18.317Z,57.80
2019-05-11T10:45:48.349Z,57.90
2019-05-11T10:48:17.727Z,58.30
2019-05-11T10:50:48.322Z,58.50
2019-05-11T10:53:18.344Z,59.00
2019-05-11T10:55:47.927Z,59.30
2019-05-11T10:58:18.367Z,59.60
2019-05-11T11:00:48.096Z,60.10
2019-05-11T11:03:17.899Z,60.10
2019-05-11T11:05:48.593Z,58.90
2019-05-11T11:08:18.524Z,58.60
2019-05-11T11:10:48.406Z,57.70
2019-05-11T11:13:18.820Z,56.50
2019-05-11T11:15:48.448Z,56.00
2019-05-11T11:18:18.913Z,55.90
2019-05-11T11:20:48.866Z,55.80
2019-05-11T11:23:17.771Z,56.00
2019-05-11T11:25:48.166Z,55.90
2019-05-11T11:28:17.526Z,55.20
2019-05-11T11:30:48.097Z,54.60
2019-05-11T11:33:18.235Z,54.80
2019-05-11T11:35:47.710Z,54.40
2019-05-11T11:38:18.145Z,54.00
2019-05-11T11:40:48.196Z,53.70
2019-05-11T11:43:18.060Z,54.50
2019-05-11T11:45:48.286Z,53.60
2019-05-11T11:48:18.693Z,53.90
2019-05-11T11:50:48.042Z,53.60
2019-05-11T11:53:18.633Z,51.50
2019-05-11T11:55:48.188Z,51.20
2019-05-11T11:58:23.139Z,52.40
2019-05-11T12:00:48.236Z,52.80
2019-05-11T12:03:18.568Z,53.30
2019-05-11T12:05:47.726Z,52.60
2019-05-11T12:08:18.628Z,52.00
2019-05-11T12:10:48.350Z,51.10
2019-05-11T12:13:18.584Z,48.70
2019-05-11T12:15:48.238Z,47.90
2019-05-11T12:18:18.342Z,47.70
2019-05-11T12:20:48.080Z,48.60
2019-05-11T12:23:17.965Z,49.40
2019-05-11T12:25:48.702Z,49.20
2019-05-11T12:28:18.407Z,49.10
2019-05-11T12:30:48.100Z,48.50
2019-05-11T12:33:18.727Z,46.20
2019-05-11T12:35:48.121Z,45.20
2019-05-11T12:38:18.312Z,44.50
2019-05-11T12:40:47.737Z,43.00
2019-05-11T12:43:18.382Z,42.10
2019-05-11T12:45:48.165Z,39.50
2019-05-11T12:48:18.059Z,39.30
2019-05-11T12:50:48.482Z,38.90
2019-05-11T12:53:18.474Z,38.80
2019-05-11T12:55:48.325Z,39.00
2019-05-11T12:58:18.151Z,37.40
2019-05-11T13:00:47.917Z,36.50
2019-05-11T13:03:18.555Z,36.30
2019-05-11T13:05:48.391Z,35.90
2019-05-11T13:08:18.475Z,35.90
2019-05-11T13:10:47.856Z,36.30
2019-05-11T13:13:18.179Z,35.90
2019-05-11T13:15:47.962Z,34.80
2019-05-11T13:18:18.585Z,31.90
2019-05-11T13:20:48.204Z,32.10
2019-05-11T13:23:18.512Z,30.30
2019-05-11T13:25:48.085Z,29.10
2019-05-11T13:28:17.986Z,30.40
2019-05-11T13:30:48.585Z,30.10
2019-05-11T13:33:18.789Z,28.80
2019-05-11T13:35:48.257Z,28.40
2019-05-11T13:38:17.916Z,28.20
2019-05-11T13:40:48.574Z,28.90
2019-05-11T13:43:18.640Z,27.00
2019-05-11T13:45:47.911Z,25.00
2019-05-11T13:48:17.698Z,24.00
2019-05-11T13:50:47.989Z,24.60
2019-05-11T13:53:18.202Z,24.30
2019-05-11T13:55:48.138Z,24.10
2019-05-11T13:58:19.445Z,24.80
2019-05-11T14:00:48.098Z,24.60
2019-05-11T14:03:18.454Z,24.80
2019-05-11T14:05:48.334Z,26.10
2019-05-11T14:08:18.573Z,26.00
2019-05-11T14:10:48.867Z,25.30
2019-05-11T14:13:18.111Z,25.00
2019-05-11T14:15:48.157Z,25.20
2019-05-11T14:18:18.219Z,26.20
2019-05-11T14:20:48.303Z,26.00
2019-05-11T14:23:18.288Z,24.20
2019-05-11T14:25:48.695Z,23.10
2019-05-11T14:28:18.006Z,23.50
2019-05-11T14:30:48.577Z,22.50
2019-05-11T14:33:18.097Z,21.80
2019-05-11T14:35:48.736Z,20.50
2019-05-11T14:38:18.770Z,20.40
2019-05-11T14:40:48.067Z,20.30
2019-05-11T14:43:18.588Z,21.70
2019-05-11T14:45:48.473Z,20.00
2019-05-11T14:48:24.247Z,20.10
2019-05-11T14:50:48.780Z,21.20
2019-05-11T14:53:17.893Z,24.20
2019-05-11T14:55:48.619Z,25.50
2019-05-11T14:58:19.420Z,26.00
2019-05-11T15:00:48.531Z,27.30
2019-05-11T15:03:18.241Z,28.60
2019-05-11T15:05:47.854Z,29.90
2019-05-11T15:08:18.113Z,30.90
2019-05-11T15:10:48.654Z,32.20
2019-05-11T15:13:18.393Z,32.50
2019-05-11T15:15:48.649Z,32.20
2019-05-11T15:18:17.755Z,33.30
2019-05-11T15:20:47.897Z,34.20
2019-05-11T15:23:18.096Z,34.70
2019-05-11T15:25:48.614Z,35.30
2019-05-11T15:28:18.120Z,36.10
2019-05-11T15:30:48.272Z,37.10
2019-05-11T15:33:18.300Z,37.40
2019-05-11T15:35:47.930Z,36.40
2019-05-11T15:38:17.871Z,35.40
2019-05-11T15:40:48.573Z,36.00
2019-05-11T15:43:17.971Z,37.20
2019-05-11T15:45:48.628Z,37.50
2019-05-11T15:48:18.701Z,37.60
2019-05-11T15:50:48.563Z,37.50
2019-05-11T15:53:24.127Z,38.30
2019-05-11T15:55:52.520Z,38.80
2019-05-11T15:58:21.804Z,38.40
2019-05-11T16:00:50.425Z,38.50
2019-05-11T16:03:18.863Z,38.80
2019-05-11T16:05:47.911Z,38.70
2019-05-11T16:08:18.599Z,39.40
2019-05-11T16:10:48.789Z,39.30
2019-05-11T16:13:18.119Z,39.20
2019-05-11T16:15:47.682Z,39.20
2019-05-11T16:18:18.678Z,39.70
2019-05-11T16:20:49.950Z,39.30
2019-05-11T16:23:17.511Z,38.70
2019-05-11T16:25:48.465Z,38.70
2019-05-11T16:28:18.745Z,38.50
2019-05-11T16:30:48.170Z,38.90
2019-05-11T16:33:17.954Z,38.70
2019-05-11T16:35:48.802Z,38.60
2019-05-11T16:38:18.814Z,38.80
2019-05-11T16:40:48.017Z,39.60
2019-05-11T16:43:18.996Z,39.00
2019-05-11T16:45:48.872Z,39.40
2019-05-11T16:48:18.501Z,40.10
2019-05-11T16:50:46.710Z,40.80
2019-05-11T16:53:15.123Z,41.10
2019-05-11T16:55:43.500Z,41.20
2019-05-11T16:58:11.872Z,41.60
2019-05-11T17:00:42.292Z,41.30
2019-05-11T17:03:10.307Z,41.30
2019-05-11T17:05:38.700Z,41.40
2019-05-11T17:08:08.144Z,41.60
2019-05-11T17:10:36.606Z,41.50
2019-05-11T17:13:05.000Z,41.40
2019-05-11T17:15:33.395Z,41.20
2019-05-11T17:18:01.806Z,41.30
2019-05-11T17:20:30.184Z,41.30
2019-05-11T17:22:58.621Z,41.30
2019-05-11T17:25:28.786Z,41.40
2019-05-11T17:27:58.796Z,41.70
2019-05-11T17:30:27.982Z,41.90
2019-05-11T17:32:59.170Z,42.00
2019-05-11T17:35:26.492Z,42.40
2019-05-11T17:37:54.899Z,42.90
2019-05-11T17:40:23.694Z,43.10
2019-05-11T17:42:53.876Z,43.10
2019-05-11T17:45:22.232Z,43.50
2019-05-11T17:47:50.615Z,43.60
2019-05-11T17:50:19.362Z,43.80
2019-05-11T17:52:48.158Z,44.00
2019-05-11T17:55:18.555Z,44.00
2019-05-11T17:57:48.955Z,44.40
2019-05-11T18:00:16.660Z,44.50
2019-05-11T18:02:45.108Z,44.30
2019-05-11T18:05:13.494Z,44.40
2019-05-11T18:07:41.860Z,44.60
2019-05-11T18:10:10.290Z,44.60
2019-05-11T18:12:39.222Z,44.90
2019-05-11T18:15:08.287Z,44.90
2019-05-11T18:17:36.849Z,45.30
2019-05-11T18:20:17.349Z,45.20
2019-05-11T18:22:39.098Z,45.40
2019-05-11T18:25:08.615Z,45.50
2019-05-11T18:27:38.645Z,45.80
2019-05-11T18:30:08.740Z,45.90
2019-05-11T18:32:39.478Z,46.00
2019-05-11T18:35:08.383Z,45.90
2019-05-11T18:37:38.835Z,46.00
2019-05-11T18:40:06.952Z,45.90
2019-05-11T18:42:35.354Z,46.10
2019-05-11T18:45:04.508Z,46.30
2019-05-11T18:47:32.910Z,46.40
2019-05-11T18:50:01.314Z,46.50
2019-05-11T18:52:29.714Z,47.10
2019-05-11T18:54:58.087Z,47.80
2019-05-11T18:57:27.816Z,47.30
2019-05-11T18:59:58.301Z,47.50
2019-05-11T19:02:27.941Z,47.50
2019-05-11T19:04:58.152Z,47.70
2019-05-11T19:07:28.274Z,47.50
2019-05-11T19:09:57.726Z,47.70
2019-05-11T19:12:27.911Z,47.70
2019-05-11T19:14:58.522Z,47.80
2019-05-11T19:17:28.878Z,47.90
2019-05-11T19:19:58.011Z,48.20
2019-05-11T19:22:28.706Z,48.60
2019-05-11T19:24:58.258Z,49.00
2019-05-11T19:27:28.683Z,49.00
2019-05-11T19:29:56.747Z,48.70
2019-05-11T19:32:25.139Z,49.20
2019-05-11T19:34:53.548Z,49.40
2019-05-11T19:37:21.930Z,49.60
2019-05-11T19:39:50.873Z,49.80
2019-05-11T19:42:19.424Z,50.70
2019-05-11T19:44:48.052Z,50.90
2019-05-11T19:47:18.137Z,51.20
2019-05-11T19:49:47.861Z,51.30
2019-05-11T19:52:17.829Z,51.70
2019-05-11T19:54:48.649Z,51.60
2019-05-11T19:57:17.971Z,52.20
2019-05-11T19:59:48.096Z,52.20
2019-05-11T20:02:17.831Z,52.40
2019-05-11T20:04:48.091Z,52.60
2019-05-11T20:07:18.248Z,53.10
2019-05-11T20:09:46.899Z,53.30
2019-05-11T20:12:17.841Z,53.50
2019-05-11T20:14:45.358Z,53.40
2019-05-11T20:17:13.728Z,53.80
2019-05-11T20:19:42.116Z,53.60
2019-05-11T20:22:10.539Z,53.70
2019-05-11T20:24:38.924Z,53.80
2019-05-11T20:27:08.033Z,54.30
2019-05-11T20:29:38.445Z,54.30
2019-05-11T20:32:08.155Z,54.30
2019-05-11T20:34:38.165Z,54.50
2019-05-11T20:37:07.794Z,54.60
2019-05-11T20:39:37.926Z,54.60
2019-05-11T20:42:08.562Z,54.80
2019-05-11T20:44:37.861Z,54.50
2019-05-11T20:47:06.439Z,54.50
2019-05-11T20:49:34.866Z,54.40
2019-05-11T20:52:03.264Z,54.50
2019-05-11T20:54:31.672Z,54.80
2019-05-11T20:57:00.110Z,54.90
2019-05-11T20:59:29.125Z,55.00
2019-05-11T21:01:58.633Z,55.20
2019-05-11T21:04:28.250Z,55.20
2019-05-11T21:06:57.939Z,55.00
2019-05-11T21:09:28.773Z,55.20
2019-05-11T21:11:58.870Z,55.40
2019-05-11T21:14:28.639Z,55.20
2019-05-11T21:16:58.608Z,55.50
2019-05-11T21:19:28.237Z,55.80
2019-05-11T21:21:58.972Z,55.70
2019-05-11T21:24:28.063Z,55.70
2019-05-11T21:26:58.440Z,56.20
2019-05-11T21:29:30.891Z,56.50
2019-05-11T21:31:58.863Z,56.50
2019-05-11T21:34:27.969Z,56.70
2019-05-11T21:36:56.565Z,56.60
2019-05-11T21:39:24.948Z,55.70
2019-05-11T21:41:53.394Z,56.00
2019-05-11T21:44:21.788Z,56.40
2019-05-11T21:46:50.197Z,57.00
2019-05-11T21:49:18.700Z,57.20
2019-05-11T21:51:49.394Z,57.40
2019-05-11T21:54:17.309Z,57.70
2019-05-11T21:56:45.748Z,57.70
2019-05-11T21:59:14.132Z,57.00
2019-05-11T22:01:42.520Z,57.60
2019-05-11T22:04:11.247Z,58.20
2019-05-11T22:06:39.809Z,58.20
2019-05-11T22:09:08.474Z,58.20
2019-05-11T22:11:38.070Z,56.60
2019-05-11T22:14:08.309Z,54.70
2019-05-11T22:16:38.670Z,55.60
2019-05-11T22:19:08.854Z,56.30
2019-05-11T22:21:36.920Z,57.20
2019-05-11T22:24:05.316Z,58.70
2019-05-11T22:26:33.712Z,58.10
2019-05-11T22:29:02.138Z,58.30
2019-05-11T22:31:30.509Z,58.20
2019-05-11T22:33:58.910Z,56.70
2019-05-11T22:36:28.124Z,55.70
2019-05-11T22:38:58.754Z,55.00
2019-05-11T22:41:26.815Z,55.00
2019-05-11T22:43:55.252Z,55.10
2019-05-11T22:46:23.640Z,55.00
2019-05-11T22:48:52.027Z,55.10
2019-05-11T22:51:20.444Z,55.30
2019-05-11T22:53:50.516Z,55.40
2019-05-11T22:56:20.146Z,55.70
2019-05-11T22:58:49.932Z,55.70
2019-05-11T23:01:18.519Z,55.20
2019-05-11T23:03:47.537Z,55.00
2019-05-11T23:06:17.989Z,55.40
2019-05-11T23:08:48.341Z,55.60
2019-05-11T23:11:17.996Z,55.70
2019-05-11T23:13:47.863Z,56.00
2019-05-11T23:16:18.007Z,57.00
2019-05-11T23:18:48.044Z,56.20
2019-05-11T23:21:16.298Z,56.00
2019-05-11T23:23:44.722Z,56.10
2019-05-11T23:26:13.100Z,55.80
2019-05-11T23:28:41.485Z,55.70
2019-05-11T23:31:09.916Z,55.40
2019-05-11T23:33:38.493Z,55.20
2019-05-11T23:36:07.833Z,55.70
2019-05-11T23:38:38.535Z,54.90
2019-05-11T23:41:08.270Z,54.40
2019-05-11T23:43:38.414Z,54.10
2019-05-11T23:46:08.285Z,53.70
2019-05-11T23:48:38.361Z,53.40
2019-05-11T23:51:08.761Z,53.50
2019-05-11T23:53:38.615Z,53.70
2019-05-11T23:56:06.708Z,53.70
2019-05-11T23:58:35.092Z,53.60
